createdAt,value
2022-09-04T00:00:19.038Z,100.00
2022-09-04T00:03:40.824Z,100.00
2022-09-04T00:07:00.183Z,100.00
2022-09-04T00:10:15.227Z,100.00
2022-09-04T00:13:27.693Z,100.00
2022-09-04T00:16:43.374Z,100.00
2022-09-04T00:19:56.449Z,100.00
2022-09-04T00:23:12.527Z,100.00
2022-09-04T00:26:32.467Z,100.00
2022-09-04T00:29:48.671Z,100.00
2022-09-04T00:33:02.690Z,100.00
2022-09-04T00:36:13.123Z,100.00
2022-09-04T00:39:25.136Z,100.00
2022-09-04T00:43:19.279Z,100.00
2022-09-04T00:46:52.115Z,100.00
2022-09-04T00:50:19.092Z,100.00
2022-09-04T00:53:44.104Z,100.00
2022-09-04T00:57:35.720Z,100.00
2022-09-04T01:00:42.847Z,100.00
2022-09-04T01:04:16.504Z,100.00
2022-09-04T01:07:40.166Z,100.00
2022-09-04T01:11:02.075Z,100.00
2022-09-04T01:14:15.928Z,100.00
2022-09-04T01:17:31.540Z,100.00
2022-09-04T01:20:56.816Z,100.00
2022-09-04T01:24:34.107Z,100.00
2022-09-04T01:27:50.819Z,100.00
2022-09-04T01:31:03.587Z,100.00
2022-09-04T01:34:35.763Z,100.00
2022-09-04T01:37:49.737Z,100.00
2022-09-04T01:41:02.685Z,100.00
2022-09-04T01:44:12.221Z,100.00
2022-09-04T01:47:27.755Z,100.00
2022-09-04T01:50:34.250Z,100.00
2022-09-04T01:53:47.500Z,100.00
2022-09-04T01:57:05.909Z,100.00
2022-09-04T02:00:17.767Z,100.00
2022-09-04T02:03:32.793Z,100.00
2022-09-04T02:06:51.791Z,100.00
2022-09-04T02:10:08.266Z,100.00
2022-09-04T02:13:22.446Z,100.00
2022-09-04T02:16:38.005Z,100.00
2022-09-04T02:20:02.959Z,100.00
2022-09-04T02:23:17.243Z,100.00
2022-09-04T02:26:29.589Z,100.00
2022-09-04T02:29:42.083Z,100.00
2022-09-04T02:32:58.719Z,100.00
2022-09-04T02:36:14.735Z,100.00
2022-09-04T02:39:37.121Z,100.00
2022-09-04T02:42:57.357Z,100.00
2022-09-04T02:46:10.459Z,100.00
2022-09-04T02:49:31.298Z,100.00
2022-09-04T02:52:53.380Z,100.00
2022-09-04T02:56:22.350Z,100.00
2022-09-04T02:59:42.799Z,100.00
2022-09-04T03:02:54.139Z,100.00
2022-09-04T03:06:10.290Z,100.00
2022-09-04T03:09:24.955Z,100.00
2022-09-04T03:12:36.812Z,100.00
2022-09-04T03:15:51.315Z,100.00
2022-09-04T03:19:09.362Z,100.00
2022-09-04T03:22:25.066Z,100.00
2022-09-04T03:25:49.640Z,100.00
2022-09-04T03:29:10.257Z,100.00
2022-09-04T03:32:22.197Z,100.00
2022-09-04T03:35:37.869Z,100.00
2022-09-04T03:38:57.314Z,100.00
2022-09-04T03:42:11.539Z,100.00
2022-09-04T03:45:26.974Z,100.00
2022-09-04T03:48:59.107Z,100.00
2022-09-04T03:52:11.974Z,100.00
2022-09-04T03:55:41.863Z,100.00
2022-09-04T03:58:56.061Z,100.00
2022-09-04T04:02:13.582Z,100.00
2022-09-04T04:05:29.352Z,100.00
2022-09-04T04:08:56.830Z,100.00
2022-09-04T04:12:20.370Z,100.00
2022-09-04T04:15:43.828Z,100.00
2022-09-04T04:19:10.889Z,100.00
2022-09-04T04:22:34.578Z,100.00
2022-09-04T04:25:52.432Z,100.00
2022-09-04T04:29:20.505Z,100.00
2022-09-04T04:32:56.599Z,100.00
2022-09-04T04:36:13.339Z,100.00
2022-09-04T04:39:30.424Z,100.00
2022-09-04T04:42:47.091Z,100.00
2022-09-04T04:46:03.205Z,100.00
2022-09-04T04:49:39.627Z,100.00
2022-09-04T04:52:57.395Z,100.00
2022-09-04T04:56:15.517Z,100.00
2022-09-04T04:59:27.994Z,100.00
2022-09-04T05:02:43.719Z,100.00
2022-09-04T05:05:59.028Z,100.00
2022-09-04T05:09:15.106Z,100.00
2022-09-04T05:12:30.108Z,100.00
2022-09-04T05:16:07.483Z,100.00
2022-09-04T05:19:22.662Z,100.00
2022-09-04T05:22:38.177Z,100.00
2022-09-04T05:25:52.947Z,100.00
2022-09-04T05:29:06.135Z,100.00
2022-09-04T05:32:19.257Z,100.00
2022-09-04T05:35:37.653Z,100.00
2022-09-04T05:38:56.307Z,100.00
2022-09-04T05:42:22.838Z,100.00
2022-09-04T05:45:44.552Z,100.00
2022-09-04T05:49:01.964Z,100.00
2022-09-04T05:52:34.743Z,100.00
2022-09-04T05:56:13.595Z,100.00
2022-09-04T05:59:52.368Z,100.00
2022-09-04T06:03:30.418Z,100.00
2022-09-04T06:06:43.937Z,100.00
2022-09-04T06:10:01.425Z,100.00
2022-09-04T06:13:44.111Z,100.00
2022-09-04T06:17:03.927Z,100.00
2022-09-04T06:20:27.652Z,100.00
2022-09-04T06:23:58.199Z,100.00
2022-09-04T06:27:35.357Z,100.00
2022-09-04T06:30:50.142Z,100.00
2022-09-04T06:34:06.836Z,100.00
2022-09-04T06:37:20.136Z,100.00
2022-09-04T06:40:44.342Z,100.00
2022-09-04T06:44:01.621Z,100.00
2022-09-04T06:47:23.463Z,100.00
2022-09-04T06:50:38.853Z,100.00
2022-09-04T06:53:54.411Z,100.00
2022-09-04T06:57:15.573Z,100.00
2022-09-04T07:00:25.301Z,100.00
2022-09-04T07:03:42.902Z,100.00
2022-09-04T07:06:58.722Z,100.00
2022-09-04T07:10:10.581Z,100.00
2022-09-04T07:13:48.067Z,100.00
2022-09-04T07:17:05.600Z,100.00
2022-09-04T07:20:22.356Z,100.00
2022-09-04T07:23:40.132Z,100.00
2022-09-04T07:26:54.591Z,100.00
2022-09-04T07:30:05.515Z,100.00
2022-09-04T07:33:20.664Z,100.00
2022-09-04T07:36:36.187Z,100.00
2022-09-04T07:39:50.413Z,100.00
2022-09-04T07:43:06.151Z,100.00
2022-09-04T07:46:21.228Z,100.00
2022-09-04T07:49:36.536Z,100.00
2022-09-04T07:53:04.215Z,100.00
2022-09-04T07:56:23.290Z,100.00
2022-09-04T08:00:01.147Z,100.00
2022-09-04T08:03:33.922Z,97.06
2022-09-04T08:06:50.022Z,97.96
2022-09-04T08:10:15.989Z,92.80
2022-09-04T08:13:53.686Z,90.68
2022-09-04T08:17:37.217Z,87.73
2022-09-04T08:20:49.864Z,90.69
2022-09-04T08:24:20.691Z,84.18
2022-09-04T08:27:50.625Z,86.00
2022-09-04T08:31:07.882Z,83.42
2022-09-04T08:34:48.261Z,83.75
2022-09-04T08:38:26.950Z,79.56
2022-09-04T08:42:17.613Z,75.78
2022-09-04T08:46:08.766Z,73.09
2022-09-04T08:49:49.209Z,74.54
2022-09-04T08:53:26.260Z,73.41
2022-09-04T08:56:42.936Z,70.03
2022-09-04T09:00:07.329Z,68.94
2022-09-04T09:03:59.782Z,67.09
2022-09-04T09:07:53.014Z,64.89
2022-09-04T09:11:38.555Z,66.05
2022-09-04T09:15:15.411Z,64.41
2022-09-04T09:18:38.220Z,65.04
2022-09-04T09:21:54.219Z,68.48
2022-09-04T09:25:21.109Z,63.39
2022-09-04T09:28:59.291Z,65.80
2022-09-04T09:32:41.840Z,64.68
2022-09-04T09:36:20.291Z,66.72
2022-09-04T09:40:08.099Z,60.74
2022-09-04T09:43:42.186Z,59.41
2022-09-04T09:47:15.981Z,60.08
2022-09-04T09:50:42.723Z,59.72
2022-09-04T09:54:24.743Z,57.02
2022-09-04T09:58:10.726Z,58.44
2022-09-04T10:01:39.724Z,55.50
2022-09-04T10:05:24.054Z,54.15
2022-09-04T10:08:52.884Z,52.17
2022-09-04T10:12:32.307Z,49.11
2022-09-04T10:16:19.316Z,49.11
2022-09-04T10:20:16.123Z,46.00
2022-09-04T10:23:49.325Z,47.25
2022-09-04T10:27:28.074Z,45.25
2022-09-04T10:30:57.143Z,44.64
2022-09-04T10:34:24.295Z,44.74
2022-09-04T10:37:53.198Z,44.40
2022-09-04T10:41:40.980Z,45.60
2022-09-04T10:45:02.187Z,43.79
2022-09-04T10:48:28.495Z,43.84
2022-09-04T10:52:00.605Z,44.66
2022-09-04T10:55:26.846Z,43.79
2022-09-04T10:58:45.101Z,44.02
2022-09-04T11:02:16.556Z,44.30
2022-09-04T11:05:46.606Z,43.10
2022-09-04T11:09:15.800Z,39.85
2022-09-04T11:12:46.966Z,42.06
2022-09-04T11:16:16.509Z,43.85
2022-09-04T11:20:17.607Z,42.24
2022-09-04T11:23:55.494Z,41.79
2022-09-04T11:27:34.012Z,41.13
2022-09-04T11:31:00.099Z,40.71
2022-09-04T11:34:42.074Z,41.99
2022-09-04T11:38:21.326Z,39.58
2022-09-04T11:42:04.003Z,40.95
2022-09-04T11:45:35.606Z,40.53
2022-09-04T11:49:09.909Z,39.20
2022-09-04T11:52:26.583Z,38.49
2022-09-04T11:55:55.440Z,36.13
2022-09-04T11:59:28.605Z,39.28
2022-09-04T12:03:09.758Z,37.41
2022-09-04T12:06:35.152Z,36.67
2022-09-04T12:10:12.625Z,36.66
2022-09-04T12:13:52.735Z,37.83
2022-09-04T12:17:26.278Z,39.02
2022-09-04T12:20:55.343Z,39.01
2022-09-04T12:24:43.002Z,38.72
2022-09-04T12:28:23.035Z,39.54
2022-09-04T12:32:07.289Z,38.43
2022-09-04T12:35:44.017Z,37.07
2022-09-04T12:39:43.120Z,38.88
2022-09-04T12:42:58.952Z,39.97
2022-09-04T12:46:17.379Z,39.70
2022-09-04T12:49:37.594Z,40.00
2022-09-04T12:53:25.798Z,42.13
2022-09-04T12:56:49.388Z,42.62
2022-09-04T13:00:06.050Z,43.17
2022-09-04T13:03:21.463Z,43.11
2022-09-04T13:06:39.194Z,43.94
2022-09-04T13:09:55.630Z,42.08
2022-09-04T13:13:16.394Z,40.86
2022-09-04T13:16:31.072Z,40.89
2022-09-04T13:19:46.671Z,42.40
2022-09-04T13:23:07.436Z,44.24
2022-09-04T13:26:35.242Z,44.01
2022-09-04T13:30:03.080Z,42.80
2022-09-04T13:33:39.983Z,44.15
2022-09-04T13:36:57.833Z,43.69
2022-09-04T13:40:19.255Z,45.58
2022-09-04T13:43:48.153Z,45.22
2022-09-04T13:47:03.513Z,44.61
2022-09-04T13:50:25.075Z,44.14
2022-09-04T13:53:36.928Z,45.58
2022-09-04T13:56:50.843Z,43.33
2022-09-04T14:00:03.019Z,42.26
2022-09-04T14:03:14.186Z,45.04
2022-09-04T14:06:24.762Z,43.21
2022-09-04T14:09:35.264Z,45.72
2022-09-04T14:13:05.617Z,46.50
2022-09-04T14:16:15.043Z,44.31
2022-09-04T14:19:33.072Z,46.86
2022-09-04T14:22:52.086Z,47.15
2022-09-04T14:26:05.320Z,48.01
2022-09-04T14:29:22.427Z,48.03
2022-09-04T14:32:41.305Z,48.45
2022-09-04T14:35:59.643Z,47.90
2022-09-04T14:39:23.884Z,46.83
2022-09-04T14:42:48.627Z,48.99
2022-09-04T14:46:09.916Z,48.94
2022-09-04T14:49:21.533Z,49.09
2022-09-04T14:52:35.505Z,50.29
2022-09-04T14:56:22.896Z,51.63
2022-09-04T14:59:38.443Z,52.27
2022-09-04T15:02:49.371Z,52.23
2022-09-04T15:05:58.951Z,53.40
2022-09-04T15:09:25.674Z,55.47
2022-09-04T15:12:37.276Z,57.82
2022-09-04T15:15:49.372Z,59.09
2022-09-04T15:19:26.652Z,59.57
2022-09-04T15:22:40.296Z,57.04
2022-09-04T15:25:59.717Z,58.60
2022-09-04T15:29:15.128Z,60.94
2022-09-04T15:32:24.896Z,63.51
2022-09-04T15:35:33.814Z,62.04
2022-09-04T15:38:50.789Z,65.88
2022-09-04T15:41:57.452Z,66.21
2022-09-04T15:45:10.286Z,68.65
2022-09-04T15:48:48.152Z,69.10
2022-09-04T15:52:03.396Z,70.91
2022-09-04T15:55:24.343Z,71.28
2022-09-04T15:58:38.020Z,73.65
2022-09-04T16:01:51.792Z,72.87
2022-09-04T16:05:07.606Z,75.50
2022-09-04T16:08:23.793Z,73.78
2022-09-04T16:11:35.014Z,78.98
2022-09-04T16:14:46.618Z,79.12
2022-09-04T16:17:55.772Z,81.35
2022-09-04T16:21:13.643Z,80.21
2022-09-04T16:24:36.210Z,82.00
2022-09-04T16:27:50.280Z,83.88
2022-09-04T16:30:59.827Z,84.49
2022-09-04T16:34:17.381Z,82.23
2022-09-04T16:37:36.495Z,83.83
2022-09-04T16:40:49.879Z,79.77
2022-09-04T16:44:25.848Z,79.94
2022-09-04T16:47:38.935Z,80.14
2022-09-04T16:50:53.482Z,80.59
2022-09-04T16:54:05.425Z,78.69
2022-09-04T16:57:15.258Z,79.02
2022-09-04T17:00:22.434Z,79.07
2022-09-04T17:03:42.047Z,79.45
2022-09-04T17:07:03.831Z,78.86
2022-09-04T17:10:30.626Z,83.42
2022-09-04T17:13:48.744Z,84.25
2022-09-04T17:17:00.081Z,87.80
2022-09-04T17:20:09.438Z,84.47
2022-09-04T17:28:09.390Z,85.70
2022-09-04T17:29:16.212Z,92.58
2022-09-04T17:30:34.221Z,99.46
2022-09-04T17:39:44.208Z,100.00
2022-09-04T17:40:47.771Z,100.00
2022-09-04T17:41:40.667Z,100.00
2022-09-04T17:44:40.074Z,100.00
2022-09-04T17:47:46.472Z,100.00
2022-09-04T17:50:56.815Z,100.00
2022-09-04T17:54:11.378Z,100.00
2022-09-04T17:57:28.593Z,100.00
2022-09-04T18:00:53.784Z,100.00
2022-09-04T18:04:27.771Z,100.00
2022-09-04T18:08:08.230Z,100.00
2022-09-04T18:11:13.402Z,100.00
2022-09-04T18:14:26.299Z,100.00
2022-09-04T18:17:38.083Z,100.00
2022-09-04T18:20:51.626Z,100.00
2022-09-04T18:24:03.393Z,100.00
2022-09-04T18:27:16.448Z,100.00
2022-09-04T18:34:58.920Z,100.00
2022-09-04T18:37:19.633Z,100.00
2022-09-04T18:37:46.558Z,100.00
2022-09-04T18:44:59.817Z,100.00
2022-09-04T18:50:26.112Z,100.00
2022-09-04T18:50:53.390Z,100.00
2022-09-04T18:51:31.177Z,100.00
2022-09-04T18:54:42.136Z,100.00
2022-09-04T18:57:53.056Z,100.00
2022-09-04T19:01:04.682Z,100.00
2022-09-04T19:04:34.006Z,100.00
2022-09-04T19:07:47.339Z,100.00
2022-09-04T19:10:57.141Z,100.00
2022-09-04T19:14:10.692Z,100.00
2022-09-04T19:17:22.583Z,100.00
2022-09-04T19:20:36.848Z,100.00
2022-09-04T19:23:50.247Z,100.00
2022-09-04T19:27:26.679Z,100.00
2022-09-04T19:30:46.466Z,100.00
2022-09-04T19:33:58.129Z,100.00
2022-09-04T19:37:55.690Z,100.00
2022-09-04T19:45:58.954Z,100.00
2022-09-04T19:46:26.141Z,100.00
2022-09-04T19:48:01.289Z,100.00
2022-09-04T19:53:30.114Z,100.00
2022-09-04T19:54:59.913Z,100.00
2022-09-04T19:58:20.200Z,100.00
2022-09-04T20:01:32.520Z,100.00
2022-09-04T20:04:47.796Z,100.00
2022-09-04T20:07:59.066Z,100.00
2022-09-04T20:11:12.800Z,100.00
2022-09-04T20:14:46.799Z,100.00
2022-09-04T20:18:10.132Z,100.00
2022-09-04T20:21:20.336Z,100.00
2022-09-04T20:24:34.235Z,100.00
2022-09-04T20:27:46.168Z,100.00
2022-09-04T20:31:35.492Z,100.00
2022-09-04T20:34:49.984Z,100.00
2022-09-04T20:38:01.395Z,100.00
2022-09-04T20:41:14.075Z,100.00
2022-09-04T20:44:28.041Z,100.00
2022-09-04T20:52:42.866Z,100.00
2022-09-04T20:53:00.202Z,100.00
2022-09-04T20:55:15.507Z,100.00
2022-09-04T21:03:14.933Z,100.00
2022-09-04T21:03:22.401Z,100.00
2022-09-04T21:06:12.042Z,100.00
2022-09-04T21:09:38.793Z,100.00
2022-09-04T21:13:13.531Z,100.00
2022-09-04T21:16:30.912Z,100.00
2022-09-04T21:20:10.963Z,100.00
2022-09-04T21:24:02.935Z,100.00
2022-09-04T21:27:49.307Z,100.00
2022-09-04T21:31:11.260Z,100.00
2022-09-04T21:34:43.269Z,100.00
2022-09-04T21:38:01.531Z,100.00
2022-09-04T21:41:22.956Z,100.00
2022-09-04T21:45:00.867Z,100.00
2022-09-04T21:48:23.891Z,100.00
2022-09-04T21:51:48.543Z,100.00
2022-09-04T21:57:13.550Z,100.00
2022-09-04T22:02:43.255Z,100.00
2022-09-04T22:02:51.489Z,100.00
2022-09-04T22:06:09.150Z,100.00
2022-09-04T22:13:41.162Z,100.00
2022-09-04T22:13:45.267Z,100.00
2022-09-04T22:16:48.169Z,100.00
2022-09-04T22:20:18.934Z,100.00
2022-09-04T22:23:56.035Z,100.00
2022-09-04T22:28:04.699Z,100.00
2022-09-04T22:31:43.515Z,100.00
2022-09-04T22:35:24.233Z,100.00
2022-09-04T22:39:11.315Z,100.00
2022-09-04T22:42:40.263Z,100.00
2022-09-04T22:46:16.013Z,100.00
2022-09-04T22:49:49.559Z,100.00
2022-09-04T22:53:16.088Z,100.00
2022-09-04T22:56:40.350Z,100.00
2022-09-04T23:00:10.182Z,100.00
2022-09-04T23:03:32.853Z,100.00
2022-09-04T23:12:22.045Z,100.00
2022-09-04T23:13:44.686Z,100.00
2022-09-04T23:14:45.207Z,100.00
2022-09-04T23:21:46.233Z,100.00
2022-09-04T23:26:34.728Z,100.00
2022-09-04T23:26:49.019Z,100.00
2022-09-04T23:29:44.617Z,100.00
2022-09-04T23:33:30.558Z,100.00
2022-09-04T23:37:01.580Z,100.00
2022-09-04T23:40:20.460Z,100.00
2022-09-04T23:44:09.598Z,100.00
2022-09-04T23:48:02.152Z,100.00
2022-09-04T23:51:19.486Z,100.00
2022-09-04T23:54:50.382Z,100.00
2022-09-04T23:58:25.127Z,100.00
